Cincinnati, OH

11:04 AM EST on February 28, 2017 (GMT -0500)
| | Change Station

Elev -9999 ft 0.00 °N, 0.00 °E | Updated 6 minutes ago

Rain
Rain
°F
Feels Like °F
N
Wind Variable Wind from North
Gusts mph

Today
High -- | Low -- °F
--% Chance of Precip.
Yesterday
High -- | Low -- °F
Precip. -- in
Pressure 30.08 in
Visibility 2.5 miles
Clouds Mostly Cloudy 2100 ft
Mostly Cloudy 2700 ft
Overcast 3300 ft
Dew Point Not available.
Humidity Not available.
Rainfall --
Snow Depth Not available.
7:11 AM 6:29 PM
Waxing Crescent, 5% visible
SPECI KLUK 281602Z 20016KT 2 1/2SM R21L/4500VP6000FT +RA BR BKN021 BKN027 OVC033 09/09 A3008 RMK AO2 LTG DSNT ALQDS P0006 T00940094
Pressure 30.08 in
Visibility 2.5 miles
Clouds Mostly Cloudy 2100 ft
Mostly Cloudy 2700 ft
Overcast 3300 ft
Dew Point Not available.
Humidity Not available.
Rainfall --
Snow Depth Not available.
7:11 AM 6:29 PM
Waxing Crescent, 5% visible
SPECI KLUK 281602Z 20016KT 2 1/2SM R21L/4500VP6000FT +RA BR BKN021 BKN027 OVC033 09/09 A3008 RMK AO2 LTG DSNT ALQDS P0006 T00940094

Get Your Daily Forecast Email!

Thanks for signing up!

Be on the lookout for a verification email in your inbox.

You'll start receiving the daily forecast at 8 AM.

×

10-Day Weather Forecast

Almanac

Astronomy

Feb. 28, 2017 Rise Set
Actual Time
Civil Twilight
Nautical Twilight
Astronomical Twilight
Moon
Length of Visible Light
Length of Day
Tomorrow will be .
, % of the Moon is Illuminated

Today's Extremes

State Highs State Lows

Community

WunderPhotos

Upload Photos

1,962,540 photos uploaded!

WunderBlog® & News

Nearby

Air Quality

  Air Quality AQ Index Pollutant
Not available.

Snow Depth

Station Depth Elevation

Earthquake Activity

City Distance Mag. Time & Date
Minimum magnitude displayed is 2.5.

Coastal Water Temperatures

Place Temperature

Stations

Nearby Weather Stations

Station Location Temp. Windchill Dew Point Humidity Wind Precip. Elev Updated Type
                   

Watches & Warnings

There are currently no watches in effect.